createdAt,value
2018-11-06T00:04:31.789Z,12.87
2018-11-06T00:09:36.950Z,14.47
2018-11-06T00:14:41.974Z,13.73
2018-11-06T00:19:46.233Z,15.13
2018-11-06T00:24:50.784Z,13.03
2018-11-06T00:29:55.874Z,13.83
2018-11-06T00:35:01.164Z,11.33
2018-11-06T00:40:06.543Z,10.67
2018-11-06T00:45:16.001Z,13.17
2018-11-06T00:50:20.557Z,10.37
2018-11-06T00:55:25.036Z,8.83
2018-11-06T01:00:29.950Z,8.50
2018-11-06T01:05:34.288Z,7.57
2018-11-06T01:10:38.653Z,9.23
2018-11-06T01:15:43.084Z,9.00
2018-11-06T01:20:47.606Z,9.87
2018-11-06T01:25:51.961Z,10.33
2018-11-06T01:30:56.287Z,9.43
2018-11-06T01:36:01.460Z,8.57
2018-11-06T01:41:06.029Z,9.27
2018-11-06T01:46:10.596Z,18.83
2018-11-06T01:51:14.921Z,6.33
2018-11-06T01:56:19.337Z,8.67
2018-11-06T02:01:24.554Z,11.63
2018-11-06T02:06:29.042Z,10.13
2018-11-06T02:11:34.793Z,8.27
2018-11-06T02:16:39.240Z,6.33
2018-11-06T02:21:43.934Z,8.43
2018-11-06T02:26:48.501Z,5.67
2018-11-06T02:31:53.134Z,7.20
2018-11-06T02:36:57.555Z,4.50
2018-11-06T02:42:02.707Z,8.10
2018-11-06T02:47:07.483Z,5.23
2018-11-06T02:52:11.794Z,6.17
2018-11-06T02:57:22.863Z,9.73
2018-11-06T03:02:27.159Z,6.00
2018-11-06T03:07:32.064Z,5.67
2018-11-06T03:12:36.727Z,6.53
2018-11-06T03:17:41.180Z,7.20
2018-11-06T03:22:46.193Z,8.33
2018-11-06T03:27:51.375Z,6.87
2018-11-06T03:32:55.807Z,7.10
2018-11-06T03:38:00.135Z,5.40
2018-11-06T03:43:05.685Z,4.33
2018-11-06T03:48:10.066Z,5.70
2018-11-06T03:53:14.879Z,6.50
2018-11-06T03:58:19.311Z,6.93
2018-11-06T04:03:23.834Z,5.27
2018-11-06T04:08:28.177Z,4.90
2018-11-06T04:13:32.471Z,5.13
2018-11-06T04:18:36.910Z,4.30
2018-11-06T04:23:41.513Z,4.33
2018-11-06T04:28:46.217Z,5.90
2018-11-06T04:33:50.873Z,3.27
2018-11-06T04:38:55.483Z,4.80
2018-11-06T04:44:00.586Z,4.90
2018-11-06T04:49:06.195Z,4.37
2018-11-06T04:54:10.785Z,4.33
2018-11-06T04:59:15.123Z,4.23
2018-11-06T05:04:19.627Z,4.73
2018-11-06T05:09:24.158Z,4.80
2018-11-06T05:14:28.489Z,4.43
2018-11-06T05:19:33.335Z,5.07
2018-11-06T05:24:37.979Z,4.03
2018-11-06T05:29:42.305Z,5.30
2018-11-06T05:34:46.623Z,5.93
2018-11-06T05:40:02.068Z,4.67
2018-11-06T05:45:06.694Z,5.50
2018-11-06T05:50:11.420Z,5.67
2018-11-06T05:55:16.409Z,11.40
2018-11-06T06:00:27.778Z,3.30
2018-11-06T06:05:32.141Z,3.67
2018-11-06T06:10:37.578Z,4.83
2018-11-06T06:15:42.030Z,4.57
2018-11-06T06:20:46.339Z,4.87
2018-11-06T06:25:50.607Z,5.70
2018-11-06T06:30:55.953Z,3.67
2018-11-06T06:36:00.472Z,4.60
2018-11-06T06:41:05.701Z,4.17
2018-11-06T06:46:13.427Z,5.80
2018-11-06T06:51:18.054Z,3.27
2018-11-06T06:56:22.390Z,4.40
2018-11-06T07:01:26.863Z,3.57
2018-11-06T07:12:00.354Z,5.80
2018-11-06T07:17:06.640Z,4.50
2018-11-06T07:22:11.000Z,6.27
2018-11-06T07:27:15.688Z,2.77
2018-11-06T07:32:24.835Z,3.87
2018-11-06T07:37:30.968Z,4.17
2018-11-06T07:42:35.487Z,3.53
2018-11-06T07:47:40.046Z,5.67
2018-11-06T07:52:44.929Z,3.90
2018-11-06T07:57:49.431Z,3.23
2018-11-06T08:02:53.967Z,5.17
2018-11-06T08:07:58.510Z,4.58
2018-11-06T08:13:03.398Z,4.53
2018-11-06T08:18:08.571Z,3.35
2018-11-06T08:23:13.349Z,3.42
2018-11-06T08:28:17.653Z,4.50
2018-11-06T08:33:22.691Z,3.62
2018-11-06T08:38:27.023Z,2.12
2018-11-06T08:43:31.449Z,3.05
2018-11-06T08:48:35.871Z,3.12
2018-11-06T08:53:40.309Z,4.50
2018-11-06T08:58:44.891Z,4.50
2018-11-06T09:03:49.610Z,2.47
2018-11-06T09:08:54.248Z,4.95
2018-11-06T09:13:59.251Z,5.85
2018-11-06T09:19:03.656Z,4.92
2018-11-06T09:24:08.136Z,5.30
2018-11-06T09:29:12.742Z,4.00
2018-11-06T09:34:17.993Z,3.60
2018-11-06T09:39:22.933Z,4.20
2018-11-06T09:44:27.358Z,4.67
2018-11-06T09:49:32.483Z,4.87
2018-11-06T09:54:36.932Z,3.40
2018-11-06T09:59:42.495Z,5.97
2018-11-06T10:04:47.011Z,4.85
2018-11-06T10:09:51.677Z,5.10
2018-11-06T10:14:56.772Z,5.00
2018-11-06T10:20:01.725Z,5.65
2018-11-06T10:25:07.600Z,4.55
2018-11-06T10:30:14.140Z,4.12
2018-11-06T10:35:18.514Z,5.25
2018-11-06T10:40:23.504Z,4.85
2018-11-06T10:45:29.229Z,9.23
2018-11-06T10:50:33.771Z,7.00
2018-11-06T10:55:38.671Z,6.08
2018-11-06T11:00:49.053Z,6.72
2018-11-06T11:05:53.638Z,7.10
2018-11-06T11:10:58.201Z,6.40
2018-11-06T11:16:02.635Z,6.08
2018-11-06T11:21:07.159Z,6.58
2018-11-06T11:26:11.537Z,8.93
2018-11-06T11:31:16.551Z,6.97
2018-11-06T11:36:20.930Z,5.95
2018-11-06T11:41:25.483Z,4.20
2018-11-06T11:46:31.284Z,4.75
2018-11-06T11:51:35.725Z,5.47
2018-11-06T11:56:40.674Z,9.35
2018-11-06T12:01:45.989Z,6.40
2018-11-06T12:06:51.294Z,5.83
2018-11-06T12:11:55.456Z,9.60
2018-11-06T12:17:00.714Z,5.53
2018-11-06T12:22:05.834Z,4.53
2018-11-06T12:27:10.488Z,6.22
2018-11-06T12:32:14.772Z,8.10
2018-11-06T12:37:19.959Z,7.35
2018-11-06T12:42:24.518Z,12.40
2018-11-06T12:47:29.463Z,9.33
2018-11-06T12:52:33.734Z,9.25
2018-11-06T12:57:38.505Z,8.73
2018-11-06T13:02:43.087Z,11.43
2018-11-06T13:07:47.572Z,7.03
2018-11-06T13:12:52.610Z,6.75
2018-11-06T13:17:57.154Z,12.45
2018-11-06T13:23:01.659Z,7.00
2018-11-06T13:28:06.398Z,6.95
2018-11-06T13:33:10.860Z,7.37
2018-11-06T13:38:15.870Z,5.28
2018-11-06T13:43:20.773Z,9.80
2018-11-06T13:48:25.135Z,10.08
2018-11-06T13:53:30.150Z,5.55
2018-11-06T13:58:35.180Z,5.65
2018-11-06T14:03:39.726Z,4.95
2018-11-06T14:08:44.605Z,6.97
2018-11-06T14:13:49.388Z,6.42
2018-11-06T14:18:54.067Z,4.65
2018-11-06T14:23:59.870Z,5.70
2018-11-06T14:29:04.465Z,5.30
2018-11-06T14:34:09.738Z,5.80
2018-11-06T14:39:14.720Z,5.00
2018-11-06T14:44:20.417Z,8.63
2018-11-06T14:49:25.526Z,9.78
2018-11-06T14:54:31.109Z,6.37
2018-11-06T14:59:35.773Z,9.15
2018-11-06T15:04:40.377Z,7.22
2018-11-06T15:09:50.970Z,7.17
2018-11-06T15:14:57.743Z,9.35
2018-11-06T15:20:03.528Z,8.00
2018-11-06T15:25:11.207Z,6.80
2018-11-06T15:30:16.985Z,8.40
2018-11-06T15:35:22.178Z,11.25
2018-11-06T15:40:32.014Z,7.90
2018-11-06T15:45:38.821Z,5.83
2018-11-06T15:50:44.089Z,8.08
2018-11-06T15:55:48.623Z,5.33
2018-11-06T16:00:53.199Z,5.55
2018-11-06T16:05:57.700Z,6.47
2018-11-06T16:11:02.444Z,4.28
2018-11-06T16:16:07.263Z,6.47
2018-11-06T16:21:12.035Z,6.58
2018-11-06T16:26:16.441Z,3.70
2018-11-06T16:31:20.779Z,7.83
2018-11-06T16:36:26.438Z,6.08
2018-11-06T16:41:31.044Z,6.10
2018-11-06T16:46:35.602Z,5.80
2018-11-06T16:51:40.139Z,13.13
2018-11-06T16:56:44.914Z,7.22
2018-11-06T17:01:56.447Z,9.13
2018-11-06T17:07:01.881Z,9.13
2018-11-06T17:12:06.343Z,7.85
2018-11-06T17:17:11.137Z,7.53
2018-11-06T17:22:15.589Z,8.53
2018-11-06T17:27:20.111Z,7.87
2018-11-06T17:32:24.663Z,6.30
2018-11-06T17:37:30.530Z,6.75
2018-11-06T17:42:35.727Z,6.90
2018-11-06T17:47:40.683Z,6.97
2018-11-06T17:52:45.255Z,6.85
2018-11-06T17:57:50.440Z,6.87
2018-11-06T18:02:55.484Z,6.37
2018-11-06T18:08:05.610Z,6.50
2018-11-06T18:13:10.271Z,7.72
2018-11-06T18:18:14.586Z,5.42
2018-11-06T18:23:19.884Z,6.72
2018-11-06T18:28:24.479Z,6.22
2018-11-06T18:33:29.161Z,6.28
2018-11-06T18:38:33.933Z,4.55
2018-11-06T18:43:38.512Z,5.12
2018-11-06T18:48:43.382Z,7.33
2018-11-06T18:53:49.050Z,5.10
2018-11-06T18:58:53.730Z,14.03
2018-11-06T19:03:58.337Z,5.97
2018-11-06T19:09:03.047Z,5.37
2018-11-06T19:14:07.342Z,6.62
2018-11-06T19:19:12.561Z,2.45
2018-11-06T19:24:17.084Z,2.33
2018-11-06T19:29:21.840Z,2.05
2018-11-06T19:34:26.443Z,1.80
2018-11-06T19:39:30.933Z,2.80
2018-11-06T19:44:35.486Z,2.75
2018-11-06T19:49:40.035Z,2.75
2018-11-06T19:54:44.588Z,3.08
2018-11-06T19:59:49.983Z,2.62
2018-11-06T20:04:55.520Z,3.27
2018-11-06T20:10:00.599Z,3.72
2018-11-06T20:15:06.530Z,3.87
2018-11-06T20:20:13.594Z,2.27
2018-11-06T20:25:18.803Z,2.85
2018-11-06T20:30:25.022Z,3.60
2018-11-06T20:35:29.640Z,3.33
2018-11-06T20:40:34.629Z,2.37
2018-11-06T20:45:39.148Z,2.37
2018-11-06T20:50:43.501Z,1.98
2018-11-06T20:55:48.781Z,3.17
2018-11-06T21:00:53.282Z,4.85
2018-11-06T21:05:57.969Z,3.00
2018-11-06T21:11:02.598Z,2.33
2018-11-06T21:16:07.536Z,2.17
2018-11-06T21:21:11.906Z,2.80
2018-11-06T21:26:16.555Z,4.12
2018-11-06T21:31:21.245Z,3.17
2018-11-06T21:36:26.400Z,4.30
2018-11-06T21:41:31.040Z,2.60
2018-11-06T21:46:36.570Z,2.22
2018-11-06T21:51:42.294Z,2.77
2018-11-06T21:56:47.534Z,2.95
2018-11-06T22:06:55.593Z,1.60
2018-11-06T22:12:07.717Z,1.98
2018-11-06T22:17:12.526Z,2.22
2018-11-06T22:22:17.462Z,4.45
2018-11-06T22:27:22.121Z,2.98
2018-11-06T22:32:27.538Z,2.00
2018-11-06T22:37:38.961Z,2.05
2018-11-06T22:42:43.800Z,2.80
2018-11-06T22:47:49.826Z,2.25
2018-11-06T22:52:55.293Z,4.17
2018-11-06T22:57:59.887Z,4.50
2018-11-06T23:03:08.982Z,3.83
2018-11-06T23:08:18.795Z,4.20
2018-11-06T23:13:24.819Z,5.57
2018-11-06T23:18:29.923Z,4.13
2018-11-06T23:23:34.835Z,4.77
2018-11-06T23:28:39.733Z,5.77
2018-11-06T23:33:44.989Z,6.17
2018-11-06T23:38:50.034Z,4.80
2018-11-06T23:43:54.685Z,6.90
2018-11-06T23:48:59.464Z,6.90
2018-11-06T23:54:04.677Z,6.27
2018-11-06T23:59:09.770Z,6.70
